Time;durP1;ratioP1;P1;durP2;ratioP2;P2;SDS_P1;SDS_P2;PMS_P1;PMS_P2;Temp;Humidity;BMP_temperature;BMP_pressure;BME280_temperature;BME280_humidity;BME280_pressure;Samples;Min_cycle;Max_cycle;Signal;HPM_P1;HPM_P2
2024/01/27 00:01:00;;;;;;;;;;;;;;;1.65;100.00;103384.41;5056823;28;1167;-81
2024/01/27 00:03:25;;;;;;;;;;;;;;;1.64;100.00;103382.72;5050714;28;1466;-83
2024/01/27 00:05:50;;;;;;;;;;;;;;;1.64;100.00;103382.72;5047758;28;1212;-82
2024/01/27 00:08:15;;;;;;;;;;;;;;;1.64;100.00;103387.84;5046120;28;1272;-80
2024/01/27 00:10:41;;;;;;;;;;;;;;;1.60;100.00;103392.94;5045724;28;1082;-83
2024/01/27 00:13:06;;;;;;;;;;;;;;;1.60;100.00;103395.50;5058909;28;1351;-82
2024/01/27 00:15:31;;;;;;;;;;;;;;;1.64;100.00;103390.41;5048922;28;1159;-83
2024/01/27 00:17:56;;;;;;;;;;;;;;;1.56;100.00;103388.72;5044685;28;1965;-83
2024/01/27 00:20:21;;;;;;;;;;;;;;;1.56;100.00;103391.28;5052240;28;1269;-82
2024/01/27 00:22:47;;;;;;;;;;;;;;;1.53;100.00;103396.38;5056096;28;1369;-82
2024/01/27 00:25:12;;;;;;;;;;;;;;;1.52;100.00;103401.50;5054135;28;1113;-83
2024/01/27 00:27:37;;;;;;;;;;;;;;;1.50;100.00;103398.97;5040691;28;1342;-82
2024/01/27 00:30:02;;;;;;;;;;;;;;;1.53;100.00;103393.81;5053507;28;1410;-82
2024/01/27 00:32:27;;;;;;;;;;;;;;;1.52;100.00;103393.84;5049595;28;1303;-82
2024/01/27 00:34:53;;;;;;;;;;;;;;;1.48;100.00;103395.53;5038395;28;1170;-83
2024/01/27 00:37:18;;;;;;;;;;;;;;;1.50;100.00;103396.41;5047462;28;1176;-83
2024/01/27 00:39:43;;;;;;;;;;;;;;;1.49;100.00;103399.81;5052101;28;1910;-82
2024/01/27 00:42:08;;;;;;;;;;;;;;;1.48;100.00;103397.25;5047531;28;1051;-82
2024/01/27 00:44:34;;;;;;;;;;;;;;;1.46;100.00;103394.69;5038900;28;1187;-82
2024/01/27 00:47:01;;;;;;;;;;;;;;;1.45;100.00;103393.00;5040584;28;1280;-83
2024/01/27 00:49:27;;;;;;;;;;;;;;;1.45;100.00;103398.13;5046258;28;1220;-82
2024/01/27 00:51:52;;;;;;;;;;;;;;;1.44;100.00;103398.97;5032290;28;1367;-83
2024/01/27 00:54:17;;;;;;;;;;;;;;;1.43;100.00;103399.81;5041174;28;1203;-84
2024/01/27 00:56:42;;;;;;;;;;;;;;;1.44;100.00;103401.53;5047766;28;1062;-83
2024/01/27 00:59:10;;;;;;;;;;;;;;;1.46;100.00;103398.97;5040392;28;1914;-83
2024/01/27 01:01:35;;;;;;;;;;;;;;;1.41;100.00;103396.41;5046692;28;1334;-83
2024/01/27 01:04:00;;;;;;;;;;;;;;;1.39;100.00;103392.19;5037758;28;1373;-83
2024/01/27 01:06:25;;;;;;;;;;;;;;;1.39;100.00;103402.41;5043647;28;1159;-82
2024/01/27 01:08:50;;;;;;;;;;;;;;;1.35;100.00;103391.31;5036873;28;1086;-83
2024/01/27 01:11:16;;;;;;;;;;;;;;;1.31;100.00;103400.69;5035540;28;1247;-83
2024/01/27 01:13:41;;;;;;;;;;;;;;;1.31;100.00;103394.72;5047283;28;1481;-83
2024/01/27 01:16:07;;;;;;;;;;;;;;;1.31;100.00;103398.13;5037304;28;1385;-84
2024/01/27 01:18:33;;;;;;;;;;;;;;;1.29;100.00;103401.56;5045098;28;1961;-82
2024/01/27 01:20:58;;;;;;;;;;;;;;;1.30;100.00;103398.13;5043952;28;1149;-84
2024/01/27 01:23:23;;;;;;;;;;;;;;;1.29;100.00;103402.41;5046110;28;1269;-83
2024/01/27 01:25:48;;;;;;;;;;;;;;;1.30;100.00;103418.59;5042541;28;1293;-83
2024/01/27 01:28:13;;;;;;;;;;;;;;;1.30;100.00;103403.25;5047116;28;1232;-84
2024/01/27 01:30:38;;;;;;;;;;;;;;;1.29;100.00;103412.63;5045113;28;1470;-83
2024/01/27 01:33:04;;;;;;;;;;;;;;;1.30;100.00;103408.38;5045562;28;1121;-82
2024/01/27 01:35:29;;;;;;;;;;;;;;;1.31;100.00;103402.38;5043388;28;1205;-83
2024/01/27 01:37:54;;;;;;;;;;;;;;;1.33;100.00;103414.34;5042167;28;1976;-82
2024/01/27 01:40:19;;;;;;;;;;;;;;;1.32;100.00;103412.66;5039732;28;1203;-83
2024/01/27 01:42:49;;;;;;;;;;;;;;;1.31;100.00;103404.94;5044399;28;1167;-83
2024/01/27 01:45:15;;;;;;;;;;;;;;;1.29;100.00;103404.13;5044904;28;1277;-84
2024/01/27 01:47:40;;;;;;;;;;;;;;;1.29;100.00;103401.56;5044900;28;1419;-81
2024/01/27 01:50:06;;;;;;;;;;;;;;;1.29;100.00;103406.66;5042562;28;1341;-84
2024/01/27 01:52:31;;;;;;;;;;;;;;;1.26;100.00;103410.09;5049115;28;1142;-84
2024/01/27 01:54:56;;;;;;;;;;;;;;;1.26;100.00;103406.66;5051171;28;1307;-84
2024/01/27 01:57:21;;;;;;;;;;;;;;;1.29;100.00;103404.13;5053052;28;1310;-82
2024/01/27 01:59:47;;;;;;;;;;;;;;;1.30;100.00;103403.25;5047903;28;1902;-84
2024/01/27 02:02:12;;;;;;;;;;;;;;;1.32;100.00;103422.03;5051584;28;1470;-83
2024/01/27 02:04:47;;;;;;;;;;;;;;;1.33;100.00;103418.59;5033325;28;1086;-83
2024/01/27 02:07:12;;;;;;;;;;;;;;;1.31;100.00;103410.91;5046420;28;1211;-84
2024/01/27 02:09:37;;;;;;;;;;;;;;;1.29;100.00;103411.78;5045283;28;1185;-84
2024/01/27 02:12:03;;;;;;;;;;;;;;;1.24;100.00;103413.50;5037297;28;1335;-82
2024/01/27 02:14:28;;;;;;;;;;;;;;;1.23;100.00;103407.53;5046337;28;1126;-83
2024/01/27 02:16:53;;;;;;;;;;;;;;;1.21;100.00;103408.41;5036568;28;1323;-83
2024/01/27 02:19:19;;;;;;;;;;;;;;;1.22;100.00;103410.09;5048874;28;1890;-84
2024/01/27 02:21:44;;;;;;;;;;;;;;;1.20;100.00;103412.63;5045888;28;1253;-84
2024/01/27 02:24:10;;;;;;;;;;;;;;;1.21;100.00;103408.41;5042587;28;1100;-84
2024/01/27 02:26:35;;;;;;;;;;;;;;;1.21;100.00;103418.63;5043954;28;1045;-84
2024/01/27 02:29:00;;;;;;;;;;;;;;;1.18;100.00;103414.34;5040331;28;1524;-83
2024/01/27 02:31:26;;;;;;;;;;;;;;;1.17;100.00;103411.81;5050831;28;1200;-83
2024/01/27 02:33:51;;;;;;;;;;;;;;;1.15;100.00;103410.94;5043416;28;1166;-83
2024/01/27 02:36:16;;;;;;;;;;;;;;;1.13;100.00;103420.31;5045553;28;1356;-83
2024/01/27 02:38:41;;;;;;;;;;;;;;;1.09;100.00;103418.59;5047120;28;1914;-82
2024/01/27 02:41:06;;;;;;;;;;;;;;;1.06;100.00;103412.66;5035018;28;1412;-83
2024/01/27 02:43:32;;;;;;;;;;;;;;;1.07;100.00;103426.28;5041615;28;1124;-84
2024/01/27 02:45:57;;;;;;;;;;;;;;;1.05;100.00;103428.00;5048196;28;1340;-82
2024/01/27 02:48:22;;;;;;;;;;;;;;;1.03;100.00;103420.34;5047443;28;1177;-84
2024/01/27 02:50:47;;;;;;;;;;;;;;;1.02;100.00;103416.06;5048933;28;1048;-84
2024/01/27 02:53:12;;;;;;;;;;;;;;;1.03;100.00;103420.34;5046940;28;1306;-83
2024/01/27 02:55:37;;;;;;;;;;;;;;;0.98;100.00;103416.94;5053193;28;1233;-83
2024/01/27 02:58:03;;;;;;;;;;;;;;;1.00;100.00;103425.44;5047225;28;1965;-83
2024/01/27 03:00:28;;;;;;;;;;;;;;;0.94;100.00;103422.88;5053920;28;1255;-84
2024/01/27 03:02:54;;;;;;;;;;;;;;;0.93;100.00;103428.84;5045785;28;1432;-83
2024/01/27 03:05:19;;;;;;;;;;;;;;;0.90;100.00;103422.88;5058852;28;1052;-83
2024/01/27 03:07:45;;;;;;;;;;;;;;;0.93;100.00;103428.84;5047249;28;1231;-83
2024/01/27 03:10:11;;;;;;;;;;;;;;;0.88;100.00;103422.03;5046687;28;1203;-83
2024/01/27 03:12:36;;;;;;;;;;;;;;;0.87;100.00;103413.50;5049103;28;1066;-84
2024/01/27 03:15:01;;;;;;;;;;;;;;;0.86;100.00;103416.94;5040136;28;1304;-84
2024/01/27 03:17:26;;;;;;;;;;;;;;;0.82;100.00;103415.22;5047166;28;1104;-83
2024/01/27 03:19:51;;;;;;;;;;;;;;;0.80;100.00;103414.34;5049996;28;1910;-82
2024/01/27 03:22:16;;;;;;;;;;;;;;;0.76;100.00;103416.06;5041893;28;1088;-84
2024/01/27 03:24:42;;;;;;;;;;;;;;;0.81;100.00;103422.88;5051510;28;1159;-83
2024/01/27 03:27:07;;;;;;;;;;;;;;;0.77;100.00;103416.91;5052116;28;1127;-84
2024/01/27 03:29:32;;;;;;;;;;;;;;;0.74;100.00;103416.88;5040168;28;1184;-83
2024/01/27 03:31:57;;;;;;;;;;;;;;;0.71;100.00;103411.78;5049463;28;1340;-83
2024/01/27 03:34:24;;;;;;;;;;;;;;;0.70;100.00;103413.50;5039262;28;1193;-82
2024/01/27 03:36:50;;;;;;;;;;;;;;;0.68;100.00;103419.44;5051801;28;1048;-84
2024/01/27 03:39:15;;;;;;;;;;;;;;;0.68;100.00;103419.44;5053559;28;1902;-84
2024/01/27 03:41:40;;;;;;;;;;;;;;;0.67;100.00;103417.72;5043505;28;1204;-83
2024/01/27 03:44:05;;;;;;;;;;;;;;;0.68;100.00;103416.88;5036270;28;1342;-84
2024/01/27 03:46:30;;;;;;;;;;;;;;;0.69;100.00;103408.38;5042264;28;1057;-83
2024/01/27 03:48:56;;;;;;;;;;;;;;;0.69;100.00;103409.25;5042643;28;1302;-84
2024/01/27 03:51:21;;;;;;;;;;;;;;;0.67;100.00;103415.19;5054824;28;1287;-84
2024/01/27 03:53:46;;;;;;;;;;;;;;;0.65;100.00;103422.00;5043140;28;1571;-82
2024/01/27 03:56:12;;;;;;;;;;;;;;;0.69;100.00;103428.78;5043847;28;1595;-84
2024/01/27 03:58:38;;;;;;;;;;;;;;;0.66;100.00;103433.91;5046943;28;1910;-84
2024/01/27 04:01:03;;;;;;;;;;;;;;;0.68;100.00;103437.31;5036598;28;1470;-84
2024/01/27 04:03:29;;;;;;;;;;;;;;;0.68;100.00;103437.31;5059180;28;1279;-84
2024/01/27 04:05:54;;;;;;;;;;;;;;;0.67;100.00;103440.72;5050229;28;1169;-83
2024/01/27 04:08:19;;;;;;;;;;;;;;;0.66;100.00;103439.03;5049426;28;1420;-83
2024/01/27 04:10:44;;;;;;;;;;;;;;;0.66;100.00;103439.03;5053881;28;1302;-80
2024/01/27 04:13:09;;;;;;;;;;;;;;;0.65;100.00;103439.88;5047103;28;1203;-84
2024/01/27 04:15:38;;;;;;;;;;;;;;;0.67;100.00;103440.72;5050054;28;1032;-81
2024/01/27 04:18:11;;;;;;;;;;;;;;;0.68;100.00;103445.81;5047275;28;1961;-81
2024/01/27 04:20:36;;;;;;;;;;;;;;;0.63;100.00;103428.78;5043522;28;1398;-84
2024/01/27 04:23:01;;;;;;;;;;;;;;;0.64;100.00;103427.97;5041025;28;1276;-81
2024/01/27 04:25:27;;;;;;;;;;;;;;;0.63;100.00;103433.91;5051664;28;1301;-81
2024/01/27 04:27:53;;;;;;;;;;;;;;;0.64;100.00;103446.69;5042530;28;1149;-81
2024/01/27 04:30:18;;;;;;;;;;;;;;;0.59;100.00;103432.22;5044979;28;1131;-84
2024/01/27 04:32:43;;;;;;;;;;;;;;;0.58;100.00;103439.03;5047067;28;1072;-84
2024/01/27 04:35:09;;;;;;;;;;;;;;;0.57;100.00;103433.88;5045444;28;1222;-84
2024/01/27 04:37:34;;;;;;;;;;;;;;;0.51;100.00;103429.63;5044371;28;1306;-84
2024/01/27 04:40:00;;;;;;;;;;;;;;;0.55;100.00;103450.91;5056366;28;1936;-83
2024/01/27 04:42:25;;;;;;;;;;;;;;;0.63;100.00;103437.34;5038599;28;1153;-83
2024/01/27 04:44:50;;;;;;;;;;;;;;;0.57;100.00;103436.44;5045838;28;1279;-81
2024/01/27 04:47:15;;;;;;;;;;;;;;;0.56;100.00;103443.25;5035633;28;1068;-84
2024/01/27 04:49:41;;;;;;;;;;;;;;;0.52;100.00;103442.41;5039959;28;1176;-83
2024/01/27 04:52:06;;;;;;;;;;;;;;;0.52;100.00;103432.19;5043570;28;1144;-84
2024/01/27 04:54:31;;;;;;;;;;;;;;;0.52;100.00;103444.97;5050048;28;1165;-84
2024/01/27 04:56:56;;;;;;;;;;;;;;;0.52;100.00;103439.84;5052597;28;1437;-83
2024/01/27 04:59:21;;;;;;;;;;;;;;;0.57;100.00;103441.53;5048476;28;1963;-84
2024/01/27 05:01:47;;;;;;;;;;;;;;;0.52;100.00;103439.84;5035923;28;1327;-83
2024/01/27 05:04:12;;;;;;;;;;;;;;;0.52;100.00;103447.53;5049177;28;1177;-84
2024/01/27 05:06:38;;;;;;;;;;;;;;;0.50;100.00;103453.44;5049102;28;1261;-84
2024/01/27 05:09:04;;;;;;;;;;;;;;;0.51;100.00;103455.16;5059519;28;1140;-80
2024/01/27 05:11:31;;;;;;;;;;;;;;;0.50;100.00;103449.19;5047949;28;1088;-84
2024/01/27 05:13:56;;;;;;;;;;;;;;;0.48;100.00;103448.34;5050321;28;1202;-82
2024/01/27 05:16:21;;;;;;;;;;;;;;;0.47;100.00;103454.31;5047999;28;1198;-82
2024/01/27 05:18:46;;;;;;;;;;;;;;;0.47;100.00;103444.09;5042298;28;1953;-84
2024/01/27 05:21:12;;;;;;;;;;;;;;;0.47;100.00;103438.13;5045618;28;1234;-84
2024/01/27 05:23:37;;;;;;;;;;;;;;;0.48;100.00;103445.78;5051795;28;1159;-82
2024/01/27 05:26:05;;;;;;;;;;;;;;;0.52;100.00;103432.19;5046499;28;1076;-84
2024/01/27 05:28:31;;;;;;;;;;;;;;;0.47;100.00;103428.78;5044437;28;1298;-81
2024/01/27 05:30:56;;;;;;;;;;;;;;;0.44;100.00;103433.84;5040177;28;1122;-83
2024/01/27 05:33:21;;;;;;;;;;;;;;;0.44;100.00;103433.84;5041639;28;1142;-84
2024/01/27 05:35:46;;;;;;;;;;;;;;;0.44;100.00;103433.84;5036247;28;1207;-84
2024/01/27 05:38:11;;;;;;;;;;;;;;;0.44;100.00;103438.97;5042004;28;1953;-84
2024/01/27 05:40:36;;;;;;;;;;;;;;;0.44;100.00;103418.53;5044889;28;1365;-84
2024/01/27 05:43:02;;;;;;;;;;;;;;;0.39;100.00;103415.13;5041902;28;1399;-84
2024/01/27 05:45:28;;;;;;;;;;;;;;;0.38;100.00;103418.53;5043347;28;1162;-85
2024/01/27 05:47:54;;;;;;;;;;;;;;;0.42;100.00;103410.03;5050151;28;1650;-83
2024/01/27 05:50:19;;;;;;;;;;;;;;;0.37;100.00;103421.94;5046667;28;1025;-82
2024/01/27 05:52:44;;;;;;;;;;;;;;;0.37;100.00;103413.44;5051257;28;1290;-84
2024/01/27 05:55:11;;;;;;;;;;;;;;;0.36;100.00;103422.78;5048089;28;1479;-84
2024/01/27 05:57:36;;;;;;;;;;;;;;;0.34;100.00;103416.81;5035071;28;1161;-85
2024/01/27 06:00:01;;;;;;;;;;;;;;;0.32;100.00;103418.50;5044710;28;1906;-84
2024/01/27 06:02:27;;;;;;;;;;;;;;;0.31;100.00;103424.47;5043938;28;1410;-84
2024/01/27 06:04:52;;;;;;;;;;;;;;;0.28;100.00;103418.50;5049549;28;1312;-84
2024/01/27 06:07:17;;;;;;;;;;;;;;;0.27;100.00;103422.75;5042740;28;1109;-82
2024/01/27 06:09:42;;;;;;;;;;;;;;;0.24;100.00;103415.94;5046041;28;1156;-85
2024/01/27 06:12:07;;;;;;;;;;;;;;;0.25;100.00;103411.69;5052573;28;1108;-83
2024/01/27 06:14:33;;;;;;;;;;;;;;;0.25;100.00;103421.91;5043727;28;1196;-81
2024/01/27 06:16:58;;;;;;;;;;;;;;;0.26;100.00;103419.34;5034798;28;1114;-82
2024/01/27 06:19:23;;;;;;;;;;;;;;;0.27;100.00;103427.84;5038354;28;1898;-83
2024/01/27 06:21:48;;;;;;;;;;;;;;;0.25;100.00;103416.81;5048145;28;1119;-84
2024/01/27 06:24:13;;;;;;;;;;;;;;;0.26;100.00;103418.50;5047964;28;1313;-84
2024/01/27 06:26:38;;;;;;;;;;;;;;;0.24;100.00;103426.16;5037700;28;1217;-85
2024/01/27 06:29:04;;;;;;;;;;;;;;;0.21;100.00;103430.38;5034011;28;1145;-84
2024/01/27 06:31:29;;;;;;;;;;;;;;;0.23;100.00;103433.78;5037365;28;1353;-85
2024/01/27 06:33:55;;;;;;;;;;;;;;;0.22;100.00;103443.16;5043874;28;1165;-81
2024/01/27 06:36:22;;;;;;;;;;;;;;;0.25;100.00;103429.56;5045354;28;1083;-83
2024/01/27 06:38:48;;;;;;;;;;;;;;;0.25;100.00;103437.22;5046772;28;1977;-85
2024/01/27 06:41:13;;;;;;;;;;;;;;;0.23;100.00;103436.34;5046315;28;1155;-83
2024/01/27 06:43:38;;;;;;;;;;;;;;;0.22;100.00;103430.38;5043830;28;1258;-84
2024/01/27 06:46:03;;;;;;;;;;;;;;;0.23;100.00;103434.66;5039341;28;1118;-84
2024/01/27 06:48:31;;;;;;;;;;;;;;;0.25;100.00;103432.97;5044468;28;1092;-83
2024/01/27 06:50:56;;;;;;;;;;;;;;;0.27;100.00;103435.50;5048628;28;1096;-84
2024/01/27 06:53:22;;;;;;;;;;;;;;;0.23;100.00;103434.66;5039090;28;1128;-85
2024/01/27 06:55:47;;;;;;;;;;;;;;;0.25;100.00;103442.31;5049339;28;1051;-83
2024/01/27 06:58:12;;;;;;;;;;;;;;;0.23;100.00;103428.69;5044806;28;1953;-85
2024/01/27 07:00:37;;;;;;;;;;;;;;;0.22;100.00;103427.00;5039599;28;1406;-80
2024/01/27 07:03:03;;;;;;;;;;;;;;;0.19;100.00;103448.25;5048581;28;1147;-82
2024/01/27 07:05:33;;;;;;;;;;;;;;;0.17;100.00;103449.06;5042302;28;1232;-82
2024/01/27 07:07:58;;;;;;;;;;;;;;;0.16;100.00;103452.47;5042638;28;1118;-82
2024/01/27 07:10:23;;;;;;;;;;;;;;;0.14;100.00;103455.03;5051706;28;1353;-82
2024/01/27 07:12:48;;;;;;;;;;;;;;;0.13;100.00;103463.53;5047080;28;1265;-82
2024/01/27 07:15:14;;;;;;;;;;;;;;;0.15;100.00;103466.09;5042430;28;1236;-81
2024/01/27 07:17:39;;;;;;;;;;;;;;;0.17;100.00;103479.72;5036563;28;1052;-82
2024/01/27 07:20:05;;;;;;;;;;;;;;;0.15;100.00;103476.31;5041184;28;1901;-82
2024/01/27 07:22:30;;;;;;;;;;;;;;;0.15;100.00;103473.75;5036354;28;1056;-82
2024/01/27 07:24:56;;;;;;;;;;;;;;;0.15;100.00;103481.41;5047355;28;1223;-83
2024/01/27 07:27:22;;;;;;;;;;;;;;;0.15;100.00;103486.50;5040775;28;1206;-80
2024/01/27 07:29:47;;;;;;;;;;;;;;;0.15;100.00;103483.97;5050636;28;1101;-83
2024/01/27 07:32:15;;;;;;;;;;;;;;;0.14;100.00;103484.81;5049615;28;1235;-83
2024/01/27 07:34:43;;;;;;;;;;;;;;;0.16;100.00;103478.00;5038124;28;1180;-83
2024/01/27 07:37:09;;;;;;;;;;;;;;;0.15;100.00;103486.50;5041391;28;1325;-84
2024/01/27 07:39:34;;;;;;;;;;;;;;;0.15;100.00;103486.50;5046222;28;1910;-84
2024/01/27 07:41:59;;;;;;;;;;;;;;;0.15;100.00;103481.41;5041026;28;1087;-84
2024/01/27 07:44:25;;;;;;;;;;;;;;;0.15;100.00;103482.25;5037420;28;1359;-84
2024/01/27 07:46:50;;;;;;;;;;;;;;;0.15;100.00;103487.38;5057709;28;1076;-84
2024/01/27 07:49:15;;;;;;;;;;;;;;;0.16;100.00;103490.75;5034334;28;1068;-83
2024/01/27 07:51:40;;;;;;;;;;;;;;;0.16;100.00;103490.75;5049838;28;1298;-83
2024/01/27 07:54:05;;;;;;;;;;;;;;;0.18;100.00;103501.84;5045217;28;1394;-83
2024/01/27 07:56:31;;;;;;;;;;;;;;;0.18;100.00;103491.66;5045045;28;1319;-84
2024/01/27 07:58:56;;;;;;;;;;;;;;;0.17;100.00;103493.34;5043415;28;1999;-84
2024/01/27 08:01:21;;;;;;;;;;;;;;;0.18;100.00;103492.50;5042942;28;1391;-82
2024/01/27 08:03:46;;;;;;;;;;;;;;;0.20;100.00;103495.03;5050993;28;1379;-83
2024/01/27 08:06:16;;;;;;;;;;;;;;;0.16;100.00;103503.53;5047470;28;1179;-83
2024/01/27 08:08:42;;;;;;;;;;;;;;;0.17;100.00;103495.00;5054998;28;1142;-84
2024/01/27 08:11:07;;;;;;;;;;;;;;;0.17;100.00;103495.00;5031123;28;1371;-82
2024/01/27 08:13:32;;;;;;;;;;;;;;;0.19;100.00;103508.66;5038608;28;1190;-84
2024/01/27 08:15:57;;;;;;;;;;;;;;;0.17;100.00;103502.66;5045737;28;1262;-80
2024/01/27 08:18:23;;;;;;;;;;;;;;;0.18;100.00;103496.75;5043437;28;1898;-83
2024/01/27 08:20:48;;;;;;;;;;;;;;;0.21;100.00;103497.59;5037487;28;1444;-83
2024/01/27 08:23:13;;;;;;;;;;;;;;;0.24;100.00;103491.66;5038814;28;1370;-82
2024/01/27 08:25:39;;;;;;;;;;;;;;;0.28;100.00;103498.47;5041437;28;1303;-84
2024/01/27 08:28:04;;;;;;;;;;;;;;;0.31;100.00;103493.41;5041931;28;1515;-83
2024/01/27 08:30:30;;;;;;;;;;;;;;;0.33;100.00;103491.69;5050394;28;1136;-83
2024/01/27 08:32:55;;;;;;;;;;;;;;;0.35;100.00;103495.13;5047832;28;1088;-84
2024/01/27 08:35:20;;;;;;;;;;;;;;;0.36;100.00;103501.94;5046887;28;1306;-83
2024/01/27 08:37:45;;;;;;;;;;;;;;;0.39;100.00;103503.63;5050866;28;1409;-83
2024/01/27 08:40:12;;;;;;;;;;;;;;;0.42;100.00;103501.09;5040597;28;1949;-84
2024/01/27 08:42:37;;;;;;;;;;;;;;;0.44;100.00;103489.19;5040484;28;1435;-84
2024/01/27 08:45:02;;;;;;;;;;;;;;;0.48;100.00;103485.78;5041325;28;1380;-84
2024/01/27 08:47:28;;;;;;;;;;;;;;;0.51;100.00;103489.19;5038393;28;1093;-84
2024/01/27 08:49:53;;;;;;;;;;;;;;;0.56;100.00;103484.09;5051325;28;1280;-82
2024/01/27 08:52:18;;;;;;;;;;;;;;;0.62;100.00;103488.38;5046715;28;1085;-83
2024/01/27 08:54:43;;;;;;;;;;;;;;;0.66;100.00;103490.09;5045619;28;1104;-82
2024/01/27 08:57:08;;;;;;;;;;;;;;;0.69;100.00;103487.53;5042920;28;1351;-83
2024/01/27 08:59:35;;;;;;;;;;;;;;;0.76;100.00;103496.94;5037479;28;1894;-83
2024/01/27 09:02:00;;;;;;;;;;;;;;;0.75;100.00;103491.00;5035929;28;1198;-83
2024/01/27 09:04:26;;;;;;;;;;;;;;;0.82;100.00;103502.06;5034573;28;1144;-84
2024/01/27 09:06:51;;;;;;;;;;;;;;;0.85;100.00;103512.28;5031052;28;1124;-83
2024/01/27 09:09:16;;;;;;;;;;;;;;;0.89;100.00;103514.00;5045940;28;1134;-83
2024/01/27 09:11:42;;;;;;;;;;;;;;;0.94;100.00;103507.19;5043045;28;908;-83
2024/01/27 09:14:07;;;;;;;;;;;;;;;0.99;100.00;103513.16;5032810;28;1205;-83
2024/01/27 09:16:35;;;;;;;;;;;;;;;1.05;100.00;103500.41;5044742;28;1278;-83
2024/01/27 09:19:00;;;;;;;;;;;;;;;1.10;100.00;103507.22;5040505;28;1898;-83
2024/01/27 09:21:28;;;;;;;;;;;;;;;1.17;100.00;103514.03;5048453;28;1358;-83
2024/01/27 09:23:54;;;;;;;;;;;;;;;1.22;100.00;103532.78;5049306;28;1223;-82
2024/01/27 09:26:19;;;;;;;;;;;;;;;1.29;100.00;103542.16;5038539;28;1153;-84
2024/01/27 09:28:45;;;;;;;;;;;;;;;1.36;100.00;103536.19;5048418;28;1342;-83
2024/01/27 09:31:11;;;;;;;;;;;;;;;1.42;100.00;103531.09;5040012;28;1419;-83
2024/01/27 09:33:39;;;;;;;;;;;;;;;1.48;100.00;103535.34;5042059;28;1378;-82
2024/01/27 09:36:04;;;;;;;;;;;;;;;1.55;100.00;103532.81;5044459;28;1436;-82
2024/01/27 09:38:30;;;;;;;;;;;;;;;1.61;100.00;103531.97;5045850;28;2004;-84
2024/01/27 09:40:55;;;;;;;;;;;;;;;1.68;100.00;103532.81;5046442;28;1270;-83
2024/01/27 09:43:21;;;;;;;;;;;;;;;1.74;100.00;103532.78;5046879;28;1095;-83
2024/01/27 09:45:46;;;;;;;;;;;;;;;1.80;100.00;103535.34;5044236;28;1212;-82
2024/01/27 09:48:12;;;;;;;;;;;;;;;1.86;100.00;103554.09;5046296;28;1049;-84
2024/01/27 09:50:37;;;;;;;;;;;;;;;1.94;100.00;103556.63;5047331;28;1156;-82
2024/01/27 09:53:08;;;;;;;;;;;;;;;1.98;100.00;103563.44;5046014;28;1244;-84
2024/01/27 09:55:33;;;;;;;;;;;;;;;2.04;100.00;103571.13;5040957;28;1375;-83
2024/01/27 09:57:59;;;;;;;;;;;;;;;2.11;100.00;103566.84;5045491;28;1914;-82
2024/01/27 10:00:24;;;;;;;;;;;;;;;2.19;100.00;103566.84;5048220;28;1163;-84
2024/01/27 10:02:50;;;;;;;;;;;;;;;2.24;100.00;103570.25;5049902;28;1209;-83
2024/01/27 10:05:15;;;;;;;;;;;;;;;2.29;100.00;103573.63;5037597;28;1386;-84
2024/01/27 10:07:41;;;;;;;;;;;;;;;2.37;100.00;103577.88;5040232;28;1192;-84
2024/01/27 10:10:06;;;;;;;;;;;;;;;2.42;100.00;103575.31;5037342;28;1045;-82
2024/01/27 10:12:32;;;;;;;;;;;;;;;2.46;100.00;103576.13;5042569;28;1210;-85
2024/01/27 10:14:57;;;;;;;;;;;;;;;2.52;100.00;103570.97;5041206;28;1353;-86
2024/01/27 10:17:26;;;;;;;;;;;;;;;2.58;100.00;103566.72;5056539;28;1033;-86
2024/01/27 10:20:04;;;;;;;;;;;;;;;2.67;100.00;103570.94;5059157;28;1947;-85
2024/01/27 10:22:39;;;;;;;;;;;;;;;2.73;100.00;103564.91;5044491;28;1154;-85
2024/01/27 10:25:05;;;;;;;;;;;;;;;2.87;100.00;103570.84;5044325;28;1311;-84
2024/01/27 10:27:30;;;;;;;;;;;;;;;2.85;100.00;103569.97;5049954;28;1491;-86
2024/01/27 10:29:56;;;;;;;;;;;;;;;2.90;100.00;103575.94;5054362;28;1406;-85
2024/01/27 10:32:23;;;;;;;;;;;;;;;2.98;100.00;103576.72;5040032;28;1046;-86
2024/01/27 10:34:49;;;;;;;;;;;;;;;3.01;100.00;103575.88;5050157;28;1132;-85
2024/01/27 10:37:14;;;;;;;;;;;;;;;3.05;100.00;103577.56;5045647;28;1113;-86
2024/01/27 10:39:39;;;;;;;;;;;;;;;3.10;100.00;103592.06;5047211;28;1980;-85
2024/01/27 10:42:05;;;;;;;;;;;;;;;3.16;100.00;103586.91;5043848;28;1172;-86
2024/01/27 10:44:31;;;;;;;;;;;;;;;3.25;100.00;103582.56;5044064;28;1141;-85
2024/01/27 10:46:56;;;;;;;;;;;;;;;3.31;100.00;103585.09;5047333;28;983;-84
2024/01/27 10:49:21;;;;;;;;;;;;;;;3.33;100.00;103598.78;5047756;28;1180;-85
2024/01/27 10:51:54;;;;;;;;;;;;;;;3.43;100.00;103585.84;5058763;28;1574;-82
2024/01/27 10:54:24;;;;;;;;;;;;;;;3.50;100.00;103591.81;5049835;28;1001;-84
2024/01/27 10:56:51;;;;;;;;;;;;;;;3.53;100.00;103576.38;5051256;28;1115;-84
2024/01/27 10:59:17;;;;;;;;;;;;;;;3.61;100.00;103564.34;5047911;28;1972;-82
2024/01/27 11:01:42;;;;;;;;;;;;;;;3.64;100.00;103569.44;5062602;28;1202;-82
2024/01/27 11:04:10;;;;;;;;;;;;;;;3.68;100.00;103573.69;5047130;28;1249;-83
2024/01/27 11:06:36;;;;;;;;;;;;;;;3.73;100.00;103564.25;5043376;28;1095;-83
2024/01/27 11:09:05;;;;;;;;;;;;;;;3.83;100.00;103564.97;5051977;28;1161;-84
2024/01/27 11:11:33;;;;;;;;;;;;;;;3.93;100.00;103552.91;5046183;28;1015;-83
2024/01/27 11:13:58;;;;;;;;;;;;;;;4.00;100.00;103554.56;5042948;28;1222;-84
2024/01/27 11:16:23;;;;;;;;;;;;;;;4.08;100.00;103550.19;5052214;28;1337;-85
2024/01/27 11:18:49;;;;;;;;;;;;;;;4.28;100.00;103541.41;5055271;28;2009;-84
2024/01/27 11:21:15;;;;;;;;;;;;;;;4.35;100.00;103543.03;5043539;28;1299;-84
2024/01/27 11:23:41;;;;;;;;;;;;;;;4.34;100.00;103541.34;5038351;28;1195;-85
2024/01/27 11:26:09;;;;;;;;;;;;;;;4.37;100.00;103549.03;5043381;28;965;-86
2024/01/27 11:28:35;;;;;;;;;;;;;;;4.41;100.00;103555.81;5046859;28;1038;-83
2024/01/27 11:31:04;;;;;;;;;;;;;;;4.49;100.00;103562.56;5036969;28;1148;-85
2024/01/27 11:33:32;;;;;;;;;;;;;;;4.60;100.00;103559.88;5038153;28;1132;-84
2024/01/27 11:36:04;;;;;;;;;;;;;;;4.74;100.00;103557.97;5045101;28;1372;-85
2024/01/27 11:38:33;;;;;;;;;;;;;;;4.65;100.00;103552.09;5039830;28;1898;-86
2024/01/27 11:41:01;;;;;;;;;;;;;;;4.70;100.00;103546.03;5046831;28;1176;-86
2024/01/27 11:43:27;;;;;;;;;;;;;;;4.77;100.00;103542.50;5043949;28;1188;-85
2024/01/27 11:45:56;;;;;;;;;;;;;;;4.88;100.00;103541.50;5042711;28;1443;-84
2024/01/27 11:48:22;;;;;;;;;;;;;;;4.98;100.00;103535.34;5044088;28;1036;-85
2024/01/27 11:50:47;;;;;;;;;;;;;;;4.96;100.00;103532.81;5051318;28;1468;-85
2024/01/27 11:53:12;;;;;;;;;;;;;;;4.99;100.00;103532.78;5036158;28;1250;-83
2024/01/27 11:55:37;;;;;;;;;;;;;;;5.02;100.00;103522.41;5042084;28;1316;-85
2024/01/27 11:58:04;;;;;;;;;;;;;;;5.06;100.00;103518.94;5044160;28;1930;-86
2024/01/27 12:00:30;;;;;;;;;;;;;;;5.25;100.00;103524.63;5049514;28;1393;-85
2024/01/27 12:02:55;;;;;;;;;;;;;;;5.13;100.00;103517.13;5044211;28;1192;-85
2024/01/27 12:05:20;;;;;;;;;;;;;;;5.17;100.00;103511.06;5043999;28;1057;-85
2024/01/27 12:07:46;;;;;;;;;;;;;;;5.24;100.00;103507.50;5043078;28;1332;-86
2024/01/27 12:10:11;;;;;;;;;;;;;;;5.26;100.00;103515.19;5046106;28;1209;-85
2024/01/27 12:12:36;;;;;;;;;;;;;;;5.31;100.00;103509.09;5037759;28;1227;-85
2024/01/27 12:15:02;;;;;;;;;;;;;;;5.37;100.00;103517.59;5042335;28;1188;-82
2024/01/27 12:17:27;;;;;;;;;;;;;;;5.47;100.00;103519.13;5035326;28;1113;-85
2024/01/27 12:19:56;;;;;;;;;;;;;;;5.52;100.00;103515.63;5045005;28;1992;-86
2024/01/27 12:22:21;;;;;;;;;;;;;;;5.59;100.00;103518.94;5034088;28;1100;-86
2024/01/27 12:24:46;;;;;;;;;;;;;;;5.60;100.00;103523.19;5047448;28;1376;-86
2024/01/27 12:27:12;;;;;;;;;;;;;;;5.63;100.00;103518.00;5042763;28;1062;-85
2024/01/27 12:29:37;;;;;;;;;;;;;;;5.75;100.00;103520.34;5046071;28;1263;-85
2024/01/27 12:32:02;;;;;;;;;;;;;;;5.74;100.00;103512.66;5044069;28;1101;-84
2024/01/27 12:34:28;;;;;;;;;;;;;;;5.77;100.00;103517.75;5043719;28;1505;-86
2024/01/27 12:36:54;;;;;;;;;;;;;;;5.76;100.00;103511.75;5049493;28;1196;-85
2024/01/27 12:39:20;;;;;;;;;;;;;;;5.82;100.00;103524.50;5056076;28;1926;-86